createdAt,value
2018-05-11T00:00:57.145Z,13.20
2018-05-11T00:03:23.141Z,13.20
2018-05-11T00:05:49.863Z,13.20
2018-05-11T00:08:16.621Z,13.20
2018-05-11T00:10:43.341Z,13.20
2018-05-11T00:13:09.341Z,13.20
2018-05-11T00:15:35.321Z,13.20
2018-05-11T00:18:01.310Z,13.20
2018-05-11T00:20:27.286Z,13.30
2018-05-11T00:22:53.278Z,13.20
2018-05-11T00:25:19.277Z,13.30
2018-05-11T00:27:45.273Z,13.30
2018-05-11T00:30:11.254Z,13.20
2018-05-11T00:32:37.245Z,13.20
2018-05-11T00:35:03.222Z,13.10
2018-05-11T00:37:29.238Z,13.20
2018-05-11T00:39:55.215Z,13.30
2018-05-11T00:42:21.213Z,13.20
2018-05-11T00:44:47.178Z,13.20
2018-05-11T00:47:13.922Z,13.20
2018-05-11T00:49:40.642Z,13.20
2018-05-11T00:52:06.637Z,13.20
2018-05-11T00:54:32.610Z,13.20
2018-05-11T00:56:58.761Z,13.20
2018-05-11T00:59:24.766Z,13.20
2018-05-11T01:01:50.757Z,13.20
2018-05-11T01:04:16.757Z,13.30
2018-05-11T01:06:42.753Z,13.20
2018-05-11T01:09:08.741Z,13.20
2018-05-11T01:11:35.493Z,13.10
2018-05-11T01:14:01.482Z,13.10
2018-05-11T01:16:27.461Z,13.20
2018-05-11T01:18:53.451Z,13.20
2018-05-11T01:21:20.178Z,13.20
2018-05-11T01:23:46.933Z,13.00
2018-05-11T01:26:13.666Z,13.00
2018-05-11T01:28:40.429Z,13.10
2018-05-11T01:31:06.429Z,13.00
2018-05-11T01:33:32.471Z,13.00
2018-05-11T01:35:58.457Z,12.90
2018-05-11T01:38:24.456Z,12.90
2018-05-11T01:40:50.428Z,12.90
2018-05-11T01:43:17.171Z,12.80
2018-05-11T01:45:43.173Z,12.80
2018-05-11T01:48:09.174Z,13.00
2018-05-11T01:50:35.157Z,12.90
2018-05-11T01:53:01.158Z,12.80
2018-05-11T01:55:27.893Z,13.00
2018-05-11T01:57:53.925Z,13.00
2018-05-11T02:00:19.903Z,13.00
2018-05-11T02:02:46.070Z,13.00
2018-05-11T02:05:12.037Z,13.00
2018-05-11T02:07:38.033Z,13.00
2018-05-11T02:10:04.761Z,13.10
2018-05-11T02:12:30.768Z,13.10
2018-05-11T02:14:57.502Z,13.00
2018-05-11T02:17:23.517Z,13.00
2018-05-11T02:19:49.500Z,13.10
2018-05-11T02:22:15.489Z,13.10
2018-05-11T02:24:42.213Z,13.10
2018-05-11T02:27:08.193Z,13.10
2018-05-11T02:29:34.194Z,13.10
2018-05-11T02:32:00.184Z,13.20
2018-05-11T02:34:26.921Z,13.20
2018-05-11T02:36:52.918Z,13.20
2018-05-11T02:39:18.914Z,13.20
2018-05-11T02:41:44.899Z,13.30
2018-05-11T02:44:11.640Z,13.20
2018-05-11T02:46:38.390Z,13.20
2018-05-11T02:49:04.403Z,13.20
2018-05-11T02:51:31.874Z,13.20
2018-05-11T02:53:57.873Z,13.20
2018-05-11T02:56:24.060Z,13.10
2018-05-11T02:58:50.057Z,13.20
2018-05-11T03:01:16.038Z,13.20
2018-05-11T03:03:42.037Z,13.10
2018-05-11T03:06:08.032Z,12.90
2018-05-11T03:08:34.057Z,13.00
2018-05-11T03:11:00.030Z,13.00
2018-05-11T03:13:26.037Z,13.10
2018-05-11T03:15:51.999Z,12.70
2018-05-11T03:18:18.832Z,13.00
2018-05-11T03:20:44.898Z,13.00
2018-05-11T03:23:10.891Z,13.00
2018-05-11T03:25:36.853Z,12.90
2018-05-11T03:28:02.849Z,12.80
2018-05-11T03:30:28.833Z,12.80
2018-05-11T03:32:54.829Z,12.90
2018-05-11T03:35:20.821Z,12.90
2018-05-11T03:37:46.825Z,12.90
2018-05-11T03:40:13.565Z,13.10
2018-05-11T03:42:40.314Z,13.00
2018-05-11T03:45:06.309Z,13.00
2018-05-11T03:47:32.285Z,13.00
2018-05-11T03:49:58.297Z,13.00
2018-05-11T03:52:24.294Z,12.90
2018-05-11T03:54:51.053Z,12.90
2018-05-11T03:57:17.025Z,12.90
2018-05-11T03:59:43.025Z,12.80
2018-05-11T04:02:15.123Z,12.80
2018-05-11T04:04:47.166Z,12.90
2018-05-11T04:07:19.289Z,12.90
2018-05-11T04:09:45.313Z,12.90
2018-05-11T04:12:11.378Z,13.00
2018-05-11T04:14:37.308Z,13.10
2018-05-11T04:17:03.305Z,13.10
2018-05-11T04:19:29.299Z,12.90
2018-05-11T04:21:55.293Z,12.90
2018-05-11T04:24:21.308Z,12.90
2018-05-11T04:26:47.306Z,13.00
2018-05-11T04:29:13.302Z,13.10
2018-05-11T04:31:40.010Z,13.00
2018-05-11T04:34:06.005Z,13.00
2018-05-11T04:36:31.981Z,12.90
2018-05-11T04:38:57.981Z,12.90
2018-05-11T04:41:24.069Z,12.90
2018-05-11T04:43:50.082Z,12.80
2018-05-11T04:46:16.050Z,12.80
2018-05-11T04:48:42.777Z,12.80
2018-05-11T04:51:08.784Z,12.80
2018-05-11T04:53:34.786Z,12.80
2018-05-11T04:56:00.806Z,12.90
2018-05-11T04:58:26.798Z,13.40
2018-05-11T05:00:53.541Z,13.80
2018-05-11T05:03:19.542Z,13.80
2018-05-11T05:05:45.550Z,13.80
2018-05-11T05:08:12.319Z,14.00
2018-05-11T05:10:39.155Z,13.90
2018-05-11T05:13:05.877Z,13.80
2018-05-11T05:15:31.893Z,13.80
2018-05-11T05:17:57.966Z,13.90
2018-05-11T05:20:23.977Z,14.00
2018-05-11T05:22:50.705Z,14.10
2018-05-11T05:25:17.452Z,14.20
2018-05-11T05:27:44.377Z,14.10
2018-05-11T05:30:10.385Z,14.10
2018-05-11T05:32:36.364Z,14.10
2018-05-11T05:35:09.397Z,14.20
2018-05-11T05:37:35.377Z,14.30
2018-05-11T05:40:01.390Z,14.10
2018-05-11T05:42:27.391Z,14.00
2018-05-11T05:44:54.129Z,14.10
2018-05-11T05:47:20.107Z,14.10
2018-05-11T05:49:46.100Z,14.00
2018-05-11T05:52:12.848Z,14.20
2018-05-11T05:54:38.839Z,14.10
2018-05-11T05:57:04.818Z,14.30
2018-05-11T05:59:37.935Z,14.20
2018-05-11T06:02:03.911Z,14.30
2018-05-11T06:04:30.102Z,14.10
2018-05-11T06:06:56.741Z,13.60
2018-05-11T06:09:23.498Z,13.50
2018-05-11T06:11:49.484Z,13.50
2018-05-11T06:14:15.472Z,13.40
2018-05-11T06:16:41.465Z,13.30
2018-05-11T06:19:08.189Z,13.20
2018-05-11T06:21:34.192Z,13.20
2018-05-11T06:24:00.177Z,13.20
2018-05-11T06:26:26.174Z,13.30
2018-05-11T06:28:52.921Z,13.20
2018-05-11T06:31:19.654Z,13.10
2018-05-11T06:33:46.382Z,13.10
2018-05-11T06:36:13.865Z,13.20
2018-05-11T06:38:39.882Z,13.20
2018-05-11T06:41:05.886Z,13.20
2018-05-11T06:43:32.621Z,13.20
2018-05-11T06:45:58.663Z,13.20
2018-05-11T06:48:24.640Z,13.30
2018-05-11T06:50:50.662Z,13.30
2018-05-11T06:53:16.649Z,13.40
2018-05-11T06:55:42.657Z,13.50
2018-05-11T06:58:09.397Z,13.40
2018-05-11T07:00:35.401Z,13.30
2018-05-11T07:03:01.378Z,13.30
2018-05-11T07:05:27.366Z,13.30
2018-05-11T07:07:53.449Z,13.40
2018-05-11T07:10:20.134Z,13.40
2018-05-11T07:12:46.869Z,13.60
2018-05-11T07:15:13.609Z,13.70
2018-05-11T07:17:39.565Z,13.60
2018-05-11T07:20:05.556Z,13.70
2018-05-11T07:22:32.304Z,13.70
2018-05-11T07:24:58.288Z,13.70
2018-05-11T07:27:24.270Z,13.80
2018-05-11T07:29:50.245Z,13.90
2018-05-11T07:32:16.241Z,13.90
2018-05-11T07:34:42.225Z,13.90
2018-05-11T07:37:08.213Z,13.90
2018-05-11T07:39:34.937Z,13.90
2018-05-11T07:42:00.954Z,13.90
2018-05-11T07:44:26.946Z,14.00
2018-05-11T07:46:52.962Z,14.00
2018-05-11T07:49:18.957Z,14.00
2018-05-11T07:51:45.688Z,14.40
2018-05-11T07:54:11.674Z,14.40
2018-05-11T07:56:37.685Z,14.50
2018-05-11T07:59:03.678Z,14.50
2018-05-11T08:01:30.418Z,14.50
2018-05-11T08:03:57.217Z,14.40
2018-05-11T08:06:23.953Z,14.50
2018-05-11T08:08:50.086Z,14.40
2018-05-11T08:11:16.112Z,14.60
2018-05-11T08:13:42.102Z,14.70
2018-05-11T08:16:08.191Z,14.50
2018-05-11T08:18:34.915Z,14.50
2018-05-11T08:21:00.919Z,14.60
2018-05-11T08:23:26.933Z,14.60
2018-05-11T08:25:52.939Z,14.60
2018-05-11T08:28:18.909Z,14.50
2018-05-11T08:30:44.909Z,14.60
2018-05-11T08:33:10.886Z,14.70
2018-05-11T08:35:37.601Z,14.70
2018-05-11T08:38:03.599Z,14.70
2018-05-11T08:40:29.577Z,14.70
2018-05-11T08:42:55.564Z,14.80
2018-05-11T08:45:21.529Z,14.80
2018-05-11T08:47:47.529Z,14.70
2018-05-11T08:50:14.254Z,14.70
2018-05-11T08:52:40.258Z,14.70
2018-05-11T08:55:06.248Z,14.70
2018-05-11T08:57:32.236Z,14.70
2018-05-11T08:59:58.960Z,14.90
2018-05-11T09:02:24.957Z,14.90
2018-05-11T09:04:50.941Z,15.00
2018-05-11T09:07:16.929Z,15.10
2018-05-11T09:09:42.927Z,15.10
2018-05-11T09:12:08.926Z,15.00
2018-05-11T09:14:34.909Z,15.10
2018-05-11T09:17:00.898Z,15.20
2018-05-11T09:19:26.894Z,15.30
2018-05-11T09:21:52.904Z,15.30
2018-05-11T09:24:18.882Z,15.30
2018-05-11T09:26:44.899Z,15.60
2018-05-11T09:29:10.885Z,15.60
2018-05-11T09:31:36.937Z,15.60
2018-05-11T09:34:02.922Z,15.70
2018-05-11T09:39:01.678Z,15.70
2018-05-11T09:41:27.673Z,15.70
2018-05-11T09:43:53.646Z,16.00
2018-05-11T09:46:20.395Z,16.30
2018-05-11T09:48:47.130Z,16.40
2018-05-11T09:51:13.855Z,16.30
2018-05-11T09:53:39.830Z,16.30
2018-05-11T09:56:05.816Z,16.40
2018-05-11T09:58:32.542Z,16.40
2018-05-11T10:00:58.522Z,16.40
2018-05-11T10:03:24.516Z,16.50
2018-05-11T10:05:50.513Z,16.60
2018-05-11T10:08:17.292Z,16.90
2018-05-11T10:10:43.278Z,16.90
2018-05-11T10:13:10.018Z,17.40
2018-05-11T10:15:35.997Z,17.40
2018-05-11T10:18:01.999Z,17.60
2018-05-11T10:20:28.086Z,17.90
2018-05-11T10:22:54.081Z,18.10
2018-05-11T10:25:20.054Z,17.90
2018-05-11T10:27:46.055Z,17.80
2018-05-11T10:30:12.030Z,17.60
2018-05-11T10:32:38.066Z,17.40
2018-05-11T10:35:04.054Z,17.70
2018-05-11T10:37:30.049Z,18.10
2018-05-11T10:39:56.914Z,18.90
2018-05-11T10:42:22.758Z,18.90
2018-05-11T10:44:48.748Z,19.00
2018-05-11T10:47:15.495Z,19.00
2018-05-11T10:49:41.493Z,19.00
2018-05-11T10:52:07.522Z,18.60
2018-05-11T10:54:33.725Z,18.20
2018-05-11T10:56:59.729Z,18.40
2018-05-11T10:59:25.738Z,19.10
2018-05-11T11:01:51.708Z,19.30
2018-05-11T11:04:17.720Z,19.60
2018-05-11T11:06:43.705Z,19.50
2018-05-11T11:09:10.437Z,18.60
2018-05-11T11:11:36.409Z,18.60
2018-05-11T11:14:02.390Z,19.10
2018-05-11T11:16:28.374Z,19.80
2018-05-11T11:18:55.321Z,20.50
2018-05-11T11:21:21.334Z,20.40
2018-05-11T11:23:47.338Z,20.60
2018-05-11T11:26:13.322Z,20.40
2018-05-11T11:28:39.333Z,19.20
2018-05-11T11:31:05.313Z,18.80
2018-05-11T11:33:31.320Z,18.90
2018-05-11T11:35:57.312Z,19.60
2018-05-11T11:38:23.301Z,19.90
2018-05-11T11:40:49.296Z,20.10
2018-05-11T11:43:15.305Z,20.60
2018-05-11T11:45:42.085Z,20.00
2018-05-11T11:48:08.090Z,20.00
2018-05-11T11:50:34.069Z,19.90
2018-05-11T11:53:00.114Z,20.10
2018-05-11T11:55:26.102Z,20.00
2018-05-11T11:57:52.105Z,19.90
2018-05-11T12:00:18.105Z,19.50
2018-05-11T12:02:44.102Z,19.40
2018-05-11T12:05:10.077Z,19.40
2018-05-11T12:07:36.074Z,19.30
2018-05-11T12:10:02.274Z,20.10
2018-05-11T12:12:28.257Z,20.80
2018-05-11T12:14:54.233Z,21.30
2018-05-11T12:17:20.219Z,21.80
2018-05-11T12:19:46.986Z,20.40
2018-05-11T12:22:12.981Z,20.40
2018-05-11T12:24:39.725Z,19.90
2018-05-11T12:27:05.705Z,19.80
2018-05-11T12:29:31.705Z,19.60
2018-05-11T12:31:57.689Z,20.30
2018-05-11T12:34:24.433Z,20.50
2018-05-11T12:36:50.432Z,20.50
2018-05-11T12:39:16.430Z,20.40
2018-05-11T12:41:42.410Z,20.00
2018-05-11T12:44:08.406Z,19.70
2018-05-11T12:46:34.452Z,19.60
2018-05-11T12:49:00.378Z,19.50
2018-05-11T12:51:26.354Z,19.70
2018-05-11T12:53:52.370Z,19.70
2018-05-11T12:56:18.356Z,19.90
2018-05-11T12:58:44.350Z,19.90
2018-05-11T13:01:11.069Z,19.80
2018-05-11T13:03:37.064Z,19.70
2018-05-11T13:06:04.677Z,19.50
2018-05-11T13:08:30.669Z,19.50
2018-05-11T13:10:56.661Z,19.90
2018-05-11T13:13:22.650Z,20.80
2018-05-11T13:15:49.375Z,19.50
2018-05-11T13:18:16.131Z,19.60
2018-05-11T13:20:42.875Z,19.80
2018-05-11T13:23:09.609Z,19.90
2018-05-11T13:25:36.338Z,19.90
2018-05-11T13:28:03.073Z,20.10
2018-05-11T13:30:29.153Z,20.10
2018-05-11T13:32:55.038Z,20.70
2018-05-11T13:35:21.030Z,20.80
2018-05-11T13:37:47.014Z,21.10
2018-05-11T13:40:13.107Z,20.70
2018-05-11T13:42:39.853Z,20.80
2018-05-11T13:45:06.590Z,20.90
2018-05-11T13:47:33.313Z,21.30
2018-05-11T13:49:59.309Z,21.30
2018-05-11T13:52:25.290Z,21.30
2018-05-11T13:54:51.281Z,21.30
2018-05-11T13:57:17.265Z,21.20
2018-05-11T13:59:43.269Z,21.80
2018-05-11T14:02:09.970Z,22.20
2018-05-11T14:04:36.798Z,21.20
2018-05-11T14:07:03.450Z,21.10
2018-05-11T14:09:30.229Z,21.90
2018-05-11T14:11:56.217Z,21.90
2018-05-11T14:14:22.217Z,22.40
2018-05-11T14:16:48.205Z,22.60
2018-05-11T14:19:14.204Z,22.50
2018-05-11T14:21:40.921Z,23.40
2018-05-11T14:24:06.938Z,23.40
2018-05-11T14:26:32.921Z,23.70
2018-05-11T14:28:58.945Z,23.40
2018-05-11T14:31:24.933Z,23.00
2018-05-11T14:33:51.674Z,23.50
2018-05-11T14:36:17.666Z,23.40
2018-05-11T14:38:43.845Z,23.80
2018-05-11T14:41:09.833Z,23.90
2018-05-11T14:43:35.810Z,24.30
2018-05-11T14:46:01.794Z,24.40
2018-05-11T14:48:28.527Z,23.70
2018-05-11T14:50:54.514Z,23.70
2018-05-11T14:53:20.501Z,23.30
2018-05-11T14:55:47.226Z,23.30
2018-05-11T14:58:13.226Z,23.20
2018-05-11T15:00:39.275Z,22.50
2018-05-11T15:03:05.253Z,21.90
2018-05-11T15:05:31.269Z,21.70
2018-05-11T15:07:57.257Z,21.90
2018-05-11T15:10:23.269Z,22.80
2018-05-11T15:12:49.254Z,23.70
2018-05-11T15:15:15.261Z,24.10
2018-05-11T15:17:41.236Z,24.10
2018-05-11T15:20:07.234Z,23.60
2018-05-11T15:22:33.205Z,24.10
2018-05-11T15:24:59.197Z,24.30
2018-05-11T15:27:25.921Z,23.60
2018-05-11T15:29:51.912Z,23.60
2018-05-11T15:32:17.890Z,24.20
2018-05-11T15:34:43.889Z,24.10
2018-05-11T15:37:10.621Z,24.10
2018-05-11T15:39:36.620Z,24.00
2018-05-11T15:42:02.677Z,24.20
2018-05-11T15:44:28.689Z,24.60
2018-05-11T15:46:54.661Z,24.70
2018-05-11T15:49:20.637Z,25.00
2018-05-11T15:51:46.637Z,24.40
2018-05-11T15:54:12.622Z,24.50
2018-05-11T15:56:38.625Z,23.40
2018-05-11T15:59:05.353Z,23.50
2018-05-11T16:01:31.331Z,23.50
2018-05-11T16:03:57.315Z,23.80
2018-05-11T16:06:23.311Z,24.00
2018-05-11T16:08:50.090Z,24.70
2018-05-11T16:11:16.804Z,24.70
2018-05-11T16:13:42.818Z,24.90
2018-05-11T16:16:08.890Z,24.70
2018-05-11T16:18:34.857Z,24.10
2018-05-11T16:21:00.886Z,23.70
2018-05-11T16:23:26.872Z,24.30
2018-05-11T16:25:52.866Z,24.40
2018-05-11T16:28:19.622Z,24.70
2018-05-11T16:30:45.612Z,24.60
2018-05-11T16:33:11.589Z,24.80
2018-05-11T16:35:37.573Z,24.70
2018-05-11T16:38:04.296Z,24.30
2018-05-11T16:40:30.395Z,24.30
2018-05-11T16:42:56.281Z,24.40
2018-05-11T16:45:22.483Z,24.30
2018-05-11T16:47:49.234Z,24.20
2018-05-11T16:50:15.261Z,24.20
2018-05-11T16:52:41.241Z,24.20
2018-05-11T16:55:07.245Z,23.90
2018-05-11T16:57:33.226Z,24.00
2018-05-11T16:59:59.946Z,24.10
2018-05-11T17:02:26.681Z,24.10
2018-05-11T17:04:52.657Z,24.10
2018-05-11T17:07:18.649Z,23.90
2018-05-11T17:09:44.642Z,23.80
2018-05-11T17:12:10.626Z,23.70
2018-05-11T17:14:36.601Z,23.60
2018-05-11T17:17:02.613Z,23.50
2018-05-11T17:19:28.599Z,23.20
2018-05-11T17:21:54.585Z,23.40
2018-05-11T17:24:20.549Z,23.20
2018-05-11T17:26:46.529Z,22.60
2018-05-11T17:29:13.249Z,22.20
2018-05-11T17:31:39.251Z,22.20
2018-05-11T17:34:05.236Z,22.30
2018-05-11T17:36:31.238Z,22.30
2018-05-11T17:38:57.962Z,22.10
2018-05-11T17:41:24.188Z,22.10
2018-05-11T17:43:50.844Z,21.40
2018-05-11T17:46:17.569Z,21.50
2018-05-11T17:48:44.401Z,21.60
2018-05-11T17:51:10.468Z,21.60
2018-05-11T17:53:36.443Z,21.40
2018-05-11T17:56:02.466Z,21.20
2018-05-11T17:58:28.454Z,21.20
2018-05-11T18:00:54.449Z,21.20
2018-05-11T18:03:21.173Z,20.90
2018-05-11T18:05:47.910Z,20.80
2018-05-11T18:08:13.883Z,20.80
2018-05-11T18:10:39.889Z,20.70
2018-05-11T18:13:05.905Z,20.70
2018-05-11T18:15:31.889Z,20.40
2018-05-11T18:17:57.885Z,20.20
2018-05-11T18:20:23.865Z,20.10
2018-05-11T18:22:50.614Z,19.70
2018-05-11T18:25:16.600Z,19.60
2018-05-11T18:27:42.582Z,19.70
2018-05-11T18:30:08.571Z,19.30
2018-05-11T18:32:34.567Z,19.10
2018-05-11T18:35:00.559Z,19.00
2018-05-11T18:37:26.569Z,18.80
2018-05-11T18:39:52.629Z,18.70
2018-05-11T18:42:18.652Z,18.10
2018-05-11T18:44:44.645Z,18.20
2018-05-11T18:47:10.640Z,18.00
2018-05-11T18:49:37.360Z,17.60
2018-05-11T18:52:03.350Z,17.50
2018-05-11T18:54:29.694Z,16.90
2018-05-11T18:56:55.361Z,17.30
2018-05-11T18:59:21.540Z,17.30
2018-05-11T19:01:47.604Z,17.30
2018-05-11T19:04:13.545Z,17.40
2018-05-11T19:06:39.562Z,17.30
2018-05-11T19:09:05.569Z,17.20
2018-05-11T19:11:32.297Z,16.80
2018-05-11T19:13:58.277Z,16.80
2018-05-11T19:16:24.321Z,16.90
2018-05-11T19:18:50.318Z,16.50
2018-05-11T19:21:16.359Z,16.80
2018-05-11T19:23:42.370Z,16.70
2018-05-11T19:26:08.447Z,16.60
2018-05-11T19:28:34.377Z,16.60
2018-05-11T19:31:01.113Z,16.60
2018-05-11T19:33:27.850Z,16.60
2018-05-11T19:35:54.581Z,16.40
2018-05-11T19:38:20.594Z,16.40
2018-05-11T19:40:48.068Z,16.30
2018-05-11T19:43:14.058Z,16.30
2018-05-11T19:45:40.046Z,16.30
2018-05-11T19:48:06.829Z,16.10
2018-05-11T19:50:32.812Z,16.10
2018-05-11T19:52:58.793Z,16.10
2018-05-11T19:55:24.769Z,16.10
2018-05-11T19:57:50.738Z,16.00
2018-05-11T20:00:16.766Z,15.90
2018-05-11T20:02:43.504Z,15.90
2018-05-11T20:05:09.481Z,15.90
2018-05-11T20:07:35.471Z,15.90
2018-05-11T20:10:01.571Z,15.80
2018-05-11T20:12:27.527Z,15.80
2018-05-11T20:14:53.509Z,15.70
2018-05-11T20:17:19.509Z,15.70
2018-05-11T20:19:45.535Z,15.80
2018-05-11T20:22:11.565Z,15.80
2018-05-11T20:24:37.554Z,15.80
2018-05-11T20:27:03.570Z,16.10
2018-05-11T20:29:29.587Z,15.80
2018-05-11T20:31:55.809Z,15.80
2018-05-11T20:34:21.934Z,15.80
2018-05-11T20:36:48.657Z,15.70
2018-05-11T20:39:14.705Z,15.70
2018-05-11T20:41:40.809Z,15.80
2018-05-11T20:44:06.729Z,15.80
2018-05-11T20:46:33.469Z,15.60
2018-05-11T20:48:59.470Z,15.60
2018-05-11T20:51:25.462Z,15.60
2018-05-11T20:53:51.441Z,15.70
2018-05-11T20:56:17.444Z,15.70
2018-05-11T20:58:43.438Z,15.70
2018-05-11T21:01:09.410Z,15.60
2018-05-11T21:03:35.406Z,15.60
2018-05-11T21:06:02.356Z,15.50
2018-05-11T21:08:29.351Z,15.60
2018-05-11T21:10:55.669Z,15.60
2018-05-11T21:13:22.131Z,15.60
2018-05-11T21:15:48.127Z,15.60
2018-05-11T21:18:14.949Z,15.60
2018-05-11T21:20:40.933Z,15.60
2018-05-11T21:23:07.670Z,15.60
2018-05-11T21:25:34.461Z,15.50
2018-05-11T21:28:01.197Z,15.60
2018-05-11T21:30:27.173Z,15.60
2018-05-11T21:32:53.773Z,15.60
2018-05-11T21:35:19.769Z,15.40
2018-05-11T21:37:46.257Z,15.50
2018-05-11T21:40:13.008Z,15.50
2018-05-11T21:42:39.438Z,15.40
2018-05-11T21:45:05.778Z,15.30
2018-05-11T21:47:32.389Z,15.70
2018-05-11T21:49:59.322Z,15.40
2018-05-11T21:52:30.567Z,15.40
2018-05-11T21:54:58.088Z,15.40
2018-05-11T21:57:24.897Z,15.40
2018-05-11T21:59:52.630Z,15.40
2018-05-11T22:02:20.587Z,15.40
2018-05-11T22:04:49.966Z,15.40
2018-05-11T22:07:18.982Z,15.30
2018-05-11T22:09:46.978Z,15.40
2018-05-11T22:12:15.206Z,15.40
2018-05-11T22:14:44.645Z,15.20
2018-05-11T22:17:13.587Z,15.20
2018-05-11T22:19:43.487Z,14.90
2018-05-11T22:22:11.198Z,15.10
2018-05-11T22:24:41.353Z,15.20
2018-05-11T22:27:16.173Z,15.20
2018-05-11T22:29:46.898Z,15.20
2018-05-11T22:32:17.594Z,15.10
2018-05-11T22:34:48.125Z,15.40
2018-05-11T22:37:20.030Z,15.10
2018-05-11T22:39:51.581Z,15.10
2018-05-11T22:42:20.390Z,15.10
2018-05-11T22:44:52.025Z,15.10
2018-05-11T22:47:27.321Z,15.10
2018-05-11T22:50:04.082Z,15.20
2018-05-11T22:52:41.077Z,15.20
2018-05-11T22:55:22.429Z,15.10
2018-05-11T22:58:12.602Z,15.10
2018-05-11T23:03:54.659Z,15.20
